Hovedside
METAR-TAF:

METAR-TAF

Lufthavner :

Kristiansand, Norge

Kristiansand lufthavn

breddegrad: 58-12N, lengdegrad: 008-05E, høyde over havet: 1 m

Gjeldene værobservasjon

Denne rapporten ble laget for 22 minutter siden, klokken 22:20 UTC
Vind 3 kt fra Øst-nordøst
Temperatur 12°C
Luftfuktighet 94%
Trykk 1014 hPa
Sikt 10 km eller mer

METAR: ENCN 242220Z AUTO 07003KT 9999 FEW120/// SCT180/// 12/11 Q1014

Tid: 00:42 (22:42 UTC)

Varsel

Denne rapporten ble laget for 5 timer og 42 minutter siden, klokken 17:00 UTC
Varsel gyldig fra 24. klokken 18 UTC til 24. klokken 21 UTC
Vind 8 kt fra Øst-nordøst
Sikt 10 km eller mer
Få skyer i en høyde av 2500 ft
Brutte skyer i en høyde av 6000 ft

TAF: ENCN 241700Z 2418/2421 06008KT 9999 FEW025 BKN060

Værobservasjoner og værvarsel for over 4000 flyplasser (METAR- og TAF-rapporter).

Tilgjengelige stasjoner er representert av de røde og gule prikkene på kartet.

Hold musepekeren over prikken for å se navnet på stasjonen.

Klikk så for å se værobservasjoner og -varsler.

For å forandre kartet kan du klikke på den grønne knappen med svart kryss for å zoome inn, på den grønne knappen med strek for å zoome ut, eller på de grønne pilene for å se tilstøtende kart.


METAR-TAF: